sensor_id;sensor_type;location;lat;lon;timestamp;temperature;humidity
41722;DHT22;27407;24.142;-110.310;2023-07-31T00:02:25;42.80;75.70
41722;DHT22;27407;24.142;-110.310;2023-07-31T00:04:52;42.60;75.80
41722;DHT22;27407;24.142;-110.310;2023-07-31T00:07:18;42.70;76.70
41722;DHT22;27407;24.142;-110.310;2023-07-31T00:09:45;43.00;76.00
41722;DHT22;27407;24.142;-110.310;2023-07-31T00:12:12;42.90;76.40
41722;DHT22;27407;24.142;-110.310;2023-07-31T00:14:38;42.90;76.10
41722;DHT22;27407;24.142;-110.310;2023-07-31T00:17:05;42.40;76.90
41722;DHT22;27407;24.142;-110.310;2023-07-31T00:19:39;42.30;77.20
41722;DHT22;27407;24.142;-110.310;2023-07-31T00:22:05;42.30;76.60
41722;DHT22;27407;24.142;-110.310;2023-07-31T00:24:32;42.20;76.80
41722;DHT22;27407;24.142;-110.310;2023-07-31T00:26:58;42.20;76.70
41722;DHT22;27407;24.142;-110.310;2023-07-31T00:29:25;42.30;76.90
41722;DHT22;27407;24.142;-110.310;2023-07-31T00:31:52;42.30;77.30
41722;DHT22;27407;24.142;-110.310;2023-07-31T00:34:18;42.50;77.40
41722;DHT22;27407;24.142;-110.310;2023-07-31T00:36:45;42.30;77.90
41722;DHT22;27407;24.142;-110.310;2023-07-31T00:39:12;42.50;77.90
41722;DHT22;27407;24.142;-110.310;2023-07-31T00:41:38;42.40;77.90
41722;DHT22;27407;24.142;-110.310;2023-07-31T00:44:05;42.30;78.00
41722;DHT22;27407;24.142;-110.310;2023-07-31T00:46:31;42.10;78.50
41722;DHT22;27407;24.142;-110.310;2023-07-31T00:48:59;42.20;78.20
41722;DHT22;27407;24.142;-110.310;2023-07-31T00:51:25;42.20;78.80
41722;DHT22;27407;24.142;-110.310;2023-07-31T00:53:53;42.40;78.10
41722;DHT22;27407;24.142;-110.310;2023-07-31T00:56:20;42.30;77.60
41722;DHT22;27407;24.142;-110.310;2023-07-31T00:58:47;42.10;77.80
41722;DHT22;27407;24.142;-110.310;2023-07-31T01:01:13;42.20;79.20
41722;DHT22;27407;24.142;-110.310;2023-07-31T01:03:40;42.10;78.70
41722;DHT22;27407;24.142;-110.310;2023-07-31T01:11:48;42.00;81.10
41722;DHT22;27407;24.142;-110.310;2023-07-31T01:14:17;42.40;81.10
41722;DHT22;27407;24.142;-110.310;2023-07-31T01:16:44;42.40;80.80
41722;DHT22;27407;24.142;-110.310;2023-07-31T01:19:11;42.30;80.40
41722;DHT22;27407;24.142;-110.310;2023-07-31T01:27:09;41.30;81.30
41722;DHT22;27407;24.142;-110.310;2023-07-31T01:30:11;41.30;82.00
41722;DHT22;27407;24.142;-110.310;2023-07-31T01:32:43;40.50;84.10
41722;DHT22;27407;24.142;-110.310;2023-07-31T01:35:13;39.80;86.30
41722;DHT22;27407;24.142;-110.310;2023-07-31T01:37:40;39.50;87.90
41722;DHT22;27407;24.142;-110.310;2023-07-31T01:40:07;39.10;88.50
41722;DHT22;27407;24.142;-110.310;2023-07-31T01:42:34;38.70;89.40
41722;DHT22;27407;24.142;-110.310;2023-07-31T01:45:00;38.50;90.00
41722;DHT22;27407;24.142;-110.310;2023-07-31T01:47:27;37.90;90.30
41722;DHT22;27407;24.142;-110.310;2023-07-31T01:49:54;37.40;91.00
41722;DHT22;27407;24.142;-110.310;2023-07-31T01:52:20;37.20;91.40
41722;DHT22;27407;24.142;-110.310;2023-07-31T01:54:47;36.90;91.60
41722;DHT22;27407;24.142;-110.310;2023-07-31T01:57:14;36.90;91.90
41722;DHT22;27407;24.142;-110.310;2023-07-31T01:59:40;36.70;92.40
41722;DHT22;27407;24.142;-110.310;2023-07-31T02:02:07;36.30;92.80
41722;DHT22;27407;24.142;-110.310;2023-07-31T02:04:33;36.30;93.00
41722;DHT22;27407;24.142;-110.310;2023-07-31T02:07:00;36.10;93.30
41722;DHT22;27407;24.142;-110.310;2023-07-31T02:09:27;35.80;93.50
41722;DHT22;27407;24.142;-110.310;2023-07-31T02:11:54;35.70;93.80
41722;DHT22;27407;24.142;-110.310;2023-07-31T02:14:20;35.50;94.20
41722;DHT22;27407;24.142;-110.310;2023-07-31T02:16:47;35.50;94.20
41722;DHT22;27407;24.142;-110.310;2023-07-31T02:19:14;35.40;94.20
41722;DHT22;27407;24.142;-110.310;2023-07-31T02:21:40;35.20;94.60
41722;DHT22;27407;24.142;-110.310;2023-07-31T02:24:07;35.20;94.90
41722;DHT22;27407;24.142;-110.310;2023-07-31T02:26:33;34.90;95.60
41722;DHT22;27407;24.142;-110.310;2023-07-31T02:29:00;34.70;96.30
41722;DHT22;27407;24.142;-110.310;2023-07-31T02:31:27;34.60;97.20
41722;DHT22;27407;24.142;-110.310;2023-07-31T02:33:53;34.50;97.70
41722;DHT22;27407;24.142;-110.310;2023-07-31T02:36:20;34.60;98.50
41722;DHT22;27407;24.142;-110.310;2023-07-31T02:38:46;34.40;98.90
41722;DHT22;27407;24.142;-110.310;2023-07-31T02:41:13;34.30;99.20
41722;DHT22;27407;24.142;-110.310;2023-07-31T02:43:40;34.10;99.50
41722;DHT22;27407;24.142;-110.310;2023-07-31T02:46:07;34.10;99.90
41722;DHT22;27407;24.142;-110.310;2023-07-31T02:48:33;33.90;99.90
41722;DHT22;27407;24.142;-110.310;2023-07-31T02:51:00;33.80;99.90
41722;DHT22;27407;24.142;-110.310;2023-07-31T02:53:26;33.60;99.90
41722;DHT22;27407;24.142;-110.310;2023-07-31T02:55:53;33.70;99.90
41722;DHT22;27407;24.142;-110.310;2023-07-31T02:58:20;33.40;99.90
41722;DHT22;27407;24.142;-110.310;2023-07-31T03:00:46;33.40;99.90
41722;DHT22;27407;24.142;-110.310;2023-07-31T03:03:13;33.30;99.90
41722;DHT22;27407;24.142;-110.310;2023-07-31T03:05:40;33.30;99.90
41722;DHT22;27407;24.142;-110.310;2023-07-31T03:08:06;33.30;99.90
41722;DHT22;27407;24.142;-110.310;2023-07-31T03:10:33;33.20;99.90
41722;DHT22;27407;24.142;-110.310;2023-07-31T03:13:00;33.10;99.90
41722;DHT22;27407;24.142;-110.310;2023-07-31T03:15:26;33.30;99.90
41722;DHT22;27407;24.142;-110.310;2023-07-31T03:17:53;33.10;99.90
41722;DHT22;27407;24.142;-110.310;2023-07-31T03:20:19;33.10;99.90
41722;DHT22;27407;24.142;-110.310;2023-07-31T03:22:46;33.00;99.90
41722;DHT22;27407;24.142;-110.310;2023-07-31T03:25:13;32.90;99.90
41722;DHT22;27407;24.142;-110.310;2023-07-31T03:27:40;32.60;99.90
41722;DHT22;27407;24.142;-110.310;2023-07-31T03:30:07;32.60;99.90
41722;DHT22;27407;24.142;-110.310;2023-07-31T03:32:34;32.60;99.90
41722;DHT22;27407;24.142;-110.310;2023-07-31T03:35:00;32.50;99.90
41722;DHT22;27407;24.142;-110.310;2023-07-31T03:37:27;32.40;99.90
41722;DHT22;27407;24.142;-110.310;2023-07-31T03:39:55;32.40;99.90
41722;DHT22;27407;24.142;-110.310;2023-07-31T03:42:21;32.30;99.90
41722;DHT22;27407;24.142;-110.310;2023-07-31T03:44:48;32.10;99.90
41722;DHT22;27407;24.142;-110.310;2023-07-31T03:47:15;32.20;99.90
41722;DHT22;27407;24.142;-110.310;2023-07-31T03:49:42;32.10;99.90
41722;DHT22;27407;24.142;-110.310;2023-07-31T03:52:09;32.10;99.90
41722;DHT22;27407;24.142;-110.310;2023-07-31T03:54:36;32.10;99.90
41722;DHT22;27407;24.142;-110.310;2023-07-31T03:57:02;32.10;99.90
41722;DHT22;27407;24.142;-110.310;2023-07-31T03:59:29;32.10;99.90
41722;DHT22;27407;24.142;-110.310;2023-07-31T04:01:56;31.90;99.90
41722;DHT22;27407;24.142;-110.310;2023-07-31T04:04:22;32.10;99.90
41722;DHT22;27407;24.142;-110.310;2023-07-31T04:06:49;32.10;99.90
41722;DHT22;27407;24.142;-110.310;2023-07-31T04:09:16;31.80;99.90
41722;DHT22;27407;24.142;-110.310;2023-07-31T04:11:42;31.80;99.90
41722;DHT22;27407;24.142;-110.310;2023-07-31T04:14:09;31.70;99.90
41722;DHT22;27407;24.142;-110.310;2023-07-31T04:16:35;31.70;99.90
41722;DHT22;27407;24.142;-110.310;2023-07-31T04:19:03;31.70;99.90
41722;DHT22;27407;24.142;-110.310;2023-07-31T04:21:34;31.70;99.90
41722;DHT22;27407;24.142;-110.310;2023-07-31T04:24:01;31.60;99.90
41722;DHT22;27407;24.142;-110.310;2023-07-31T04:26:28;31.60;99.90
41722;DHT22;27407;24.142;-110.310;2023-07-31T04:28:54;31.50;99.90
41722;DHT22;27407;24.142;-110.310;2023-07-31T04:31:21;31.20;99.90
41722;DHT22;27407;24.142;-110.310;2023-07-31T04:33:47;31.00;99.90
41722;DHT22;27407;24.142;-110.310;2023-07-31T04:36:14;30.90;99.90
41722;DHT22;27407;24.142;-110.310;2023-07-31T04:38:41;31.00;99.90
41722;DHT22;27407;24.142;-110.310;2023-07-31T04:41:07;31.10;99.90
41722;DHT22;27407;24.142;-110.310;2023-07-31T04:43:34;31.40;99.90
41722;DHT22;27407;24.142;-110.310;2023-07-31T04:46:01;31.50;99.90
41722;DHT22;27407;24.142;-110.310;2023-07-31T04:48:27;31.40;99.90
41722;DHT22;27407;24.142;-110.310;2023-07-31T04:50:54;31.30;99.90
41722;DHT22;27407;24.142;-110.310;2023-07-31T04:53:21;31.30;99.90
41722;DHT22;27407;24.142;-110.310;2023-07-31T04:55:47;31.40;99.90
41722;DHT22;27407;24.142;-110.310;2023-07-31T04:58:14;31.50;99.90
41722;DHT22;27407;24.142;-110.310;2023-07-31T05:00:40;31.50;99.90
41722;DHT22;27407;24.142;-110.310;2023-07-31T05:03:07;31.50;99.90
41722;DHT22;27407;24.142;-110.310;2023-07-31T05:05:34;31.50;99.90
41722;DHT22;27407;24.142;-110.310;2023-07-31T05:08:00;31.40;99.90
41722;DHT22;27407;24.142;-110.310;2023-07-31T05:10:27;31.40;99.90
41722;DHT22;27407;24.142;-110.310;2023-07-31T05:12:54;31.20;99.90
41722;DHT22;27407;24.142;-110.310;2023-07-31T05:15:20;31.10;99.90
41722;DHT22;27407;24.142;-110.310;2023-07-31T05:17:47;31.10;99.90
41722;DHT22;27407;24.142;-110.310;2023-07-31T05:20:14;31.10;99.90
41722;DHT22;27407;24.142;-110.310;2023-07-31T05:22:41;31.10;99.90
41722;DHT22;27407;24.142;-110.310;2023-07-31T05:25:08;31.20;99.90
41722;DHT22;27407;24.142;-110.310;2023-07-31T05:27:34;31.20;99.90
41722;DHT22;27407;24.142;-110.310;2023-07-31T05:30:01;31.20;99.90
41722;DHT22;27407;24.142;-110.310;2023-07-31T05:32:28;31.10;99.90
41722;DHT22;27407;24.142;-110.310;2023-07-31T05:34:54;31.20;99.90
41722;DHT22;27407;24.142;-110.310;2023-07-31T05:37:22;31.10;99.90
41722;DHT22;27407;24.142;-110.310;2023-07-31T05:39:49;31.10;99.90
41722;DHT22;27407;24.142;-110.310;2023-07-31T05:42:15;31.10;99.90
41722;DHT22;27407;24.142;-110.310;2023-07-31T05:44:42;31.10;99.90
41722;DHT22;27407;24.142;-110.310;2023-07-31T05:47:09;31.00;99.90
41722;DHT22;27407;24.142;-110.310;2023-07-31T05:49:36;31.00;99.90
41722;DHT22;27407;24.142;-110.310;2023-07-31T05:52:03;30.90;99.90
41722;DHT22;27407;24.142;-110.310;2023-07-31T05:54:30;31.00;99.90
41722;DHT22;27407;24.142;-110.310;2023-07-31T05:56:56;30.90;99.90
41722;DHT22;27407;24.142;-110.310;2023-07-31T05:59:23;30.80;99.90
41722;DHT22;27407;24.142;-110.310;2023-07-31T06:01:50;30.80;99.90
41722;DHT22;27407;24.142;-110.310;2023-07-31T06:04:16;30.90;99.90
41722;DHT22;27407;24.142;-110.310;2023-07-31T06:06:43;30.70;99.90
41722;DHT22;27407;24.142;-110.310;2023-07-31T06:09:09;30.70;99.90
41722;DHT22;27407;24.142;-110.310;2023-07-31T06:11:36;30.60;99.90
41722;DHT22;27407;24.142;-110.310;2023-07-31T06:14:03;30.70;99.90
41722;DHT22;27407;24.142;-110.310;2023-07-31T06:16:29;30.70;99.90
41722;DHT22;27407;24.142;-110.310;2023-07-31T06:18:56;30.70;99.90
41722;DHT22;27407;24.142;-110.310;2023-07-31T06:21:23;30.70;99.90
41722;DHT22;27407;24.142;-110.310;2023-07-31T06:23:49;30.60;99.90
41722;DHT22;27407;24.142;-110.310;2023-07-31T06:26:16;30.60;99.90
41722;DHT22;27407;24.142;-110.310;2023-07-31T06:28:43;30.60;99.90
41722;DHT22;27407;24.142;-110.310;2023-07-31T06:31:10;30.60;99.90
41722;DHT22;27407;24.142;-110.310;2023-07-31T06:33:36;30.50;99.90
41722;DHT22;27407;24.142;-110.310;2023-07-31T06:36:03;30.50;99.90
41722;DHT22;27407;24.142;-110.310;2023-07-31T06:38:30;30.60;99.90
41722;DHT22;27407;24.142;-110.310;2023-07-31T06:40:56;30.50;99.90
41722;DHT22;27407;24.142;-110.310;2023-07-31T06:43:23;30.50;99.90
41722;DHT22;27407;24.142;-110.310;2023-07-31T06:45:50;30.40;99.90
41722;DHT22;27407;24.142;-110.310;2023-07-31T06:48:17;30.30;99.90
41722;DHT22;27407;24.142;-110.310;2023-07-31T06:50:44;30.30;99.90
41722;DHT22;27407;24.142;-110.310;2023-07-31T06:53:10;30.30;99.90
41722;DHT22;27407;24.142;-110.310;2023-07-31T06:55:37;30.30;99.90
41722;DHT22;27407;24.142;-110.310;2023-07-31T06:58:04;30.50;99.90
41722;DHT22;27407;24.142;-110.310;2023-07-31T07:00:38;30.30;99.90
41722;DHT22;27407;24.142;-110.310;2023-07-31T07:03:05;30.20;99.90
41722;DHT22;27407;24.142;-110.310;2023-07-31T07:05:31;30.10;99.90
41722;DHT22;27407;24.142;-110.310;2023-07-31T07:07:58;29.90;99.90
41722;DHT22;27407;24.142;-110.310;2023-07-31T07:10:25;29.90;99.90
41722;DHT22;27407;24.142;-110.310;2023-07-31T07:12:52;29.90;99.90
41722;DHT22;27407;24.142;-110.310;2023-07-31T07:15:19;29.90;99.90
41722;DHT22;27407;24.142;-110.310;2023-07-31T07:17:45;29.80;99.90
41722;DHT22;27407;24.142;-110.310;2023-07-31T07:20:12;29.90;99.90
41722;DHT22;27407;24.142;-110.310;2023-07-31T07:22:39;29.80;99.90
41722;DHT22;27407;24.142;-110.310;2023-07-31T07:25:09;29.90;99.90
41722;DHT22;27407;24.142;-110.310;2023-07-31T07:27:35;29.80;99.90
41722;DHT22;27407;24.142;-110.310;2023-07-31T07:30:02;29.70;99.90
41722;DHT22;27407;24.142;-110.310;2023-07-31T07:32:29;29.70;99.90
41722;DHT22;27407;24.142;-110.310;2023-07-31T07:34:56;29.70;99.90
41722;DHT22;27407;24.142;-110.310;2023-07-31T07:37:23;29.70;99.90
41722;DHT22;27407;24.142;-110.310;2023-07-31T07:39:49;29.60;99.90
41722;DHT22;27407;24.142;-110.310;2023-07-31T07:42:16;29.70;99.90
41722;DHT22;27407;24.142;-110.310;2023-07-31T07:44:42;29.70;99.90
41722;DHT22;27407;24.142;-110.310;2023-07-31T07:47:09;29.70;99.90
41722;DHT22;27407;24.142;-110.310;2023-07-31T07:49:36;29.90;99.90
41722;DHT22;27407;24.142;-110.310;2023-07-31T07:52:03;29.80;99.90
41722;DHT22;27407;24.142;-110.310;2023-07-31T07:54:30;29.70;99.90
41722;DHT22;27407;24.142;-110.310;2023-07-31T07:56:57;29.80;99.90
41722;DHT22;27407;24.142;-110.310;2023-07-31T07:59:24;29.60;99.90
41722;DHT22;27407;24.142;-110.310;2023-07-31T08:01:50;29.50;99.90
41722;DHT22;27407;24.142;-110.310;2023-07-31T08:04:17;29.50;99.90
41722;DHT22;27407;24.142;-110.310;2023-07-31T08:06:44;29.40;99.90
41722;DHT22;27407;24.142;-110.310;2023-07-31T08:09:10;29.50;99.90
41722;DHT22;27407;24.142;-110.310;2023-07-31T08:11:37;29.50;99.90
41722;DHT22;27407;24.142;-110.310;2023-07-31T08:14:04;29.50;99.90
41722;DHT22;27407;24.142;-110.310;2023-07-31T08:16:30;29.40;99.90
41722;DHT22;27407;24.142;-110.310;2023-07-31T08:18:57;29.40;99.90
41722;DHT22;27407;24.142;-110.310;2023-07-31T08:21:24;29.50;99.90
41722;DHT22;27407;24.142;-110.310;2023-07-31T08:23:51;29.40;99.90
41722;DHT22;27407;24.142;-110.310;2023-07-31T08:26:18;29.40;99.90
41722;DHT22;27407;24.142;-110.310;2023-07-31T08:28:45;29.40;99.90
41722;DHT22;27407;24.142;-110.310;2023-07-31T08:31:12;29.50;99.90
41722;DHT22;27407;24.142;-110.310;2023-07-31T08:33:39;29.40;99.90
41722;DHT22;27407;24.142;-110.310;2023-07-31T08:36:09;29.40;99.90
41722;DHT22;27407;24.142;-110.310;2023-07-31T08:38:35;29.40;99.90
41722;DHT22;27407;24.142;-110.310;2023-07-31T08:41:05;29.30;99.90
41722;DHT22;27407;24.142;-110.310;2023-07-31T08:43:32;29.30;99.90
41722;DHT22;27407;24.142;-110.310;2023-07-31T08:46:00;29.30;99.90
41722;DHT22;27407;24.142;-110.310;2023-07-31T08:48:27;29.30;99.90
41722;DHT22;27407;24.142;-110.310;2023-07-31T08:50:54;29.30;99.90
41722;DHT22;27407;24.142;-110.310;2023-07-31T08:53:21;29.30;99.90
41722;DHT22;27407;24.142;-110.310;2023-07-31T08:55:49;29.30;99.90
41722;DHT22;27407;24.142;-110.310;2023-07-31T08:58:17;29.20;99.90
41722;DHT22;27407;24.142;-110.310;2023-07-31T09:00:46;29.30;99.90
41722;DHT22;27407;24.142;-110.310;2023-07-31T09:03:18;29.30;99.90
41722;DHT22;27407;24.142;-110.310;2023-07-31T09:05:46;29.20;99.90
41722;DHT22;27407;24.142;-110.310;2023-07-31T09:08:14;29.40;99.90
41722;DHT22;27407;24.142;-110.310;2023-07-31T09:10:42;29.30;99.90
41722;DHT22;27407;24.142;-110.310;2023-07-31T09:13:18;29.20;99.90
41722;DHT22;27407;24.142;-110.310;2023-07-31T09:15:46;29.20;99.90
41722;DHT22;27407;24.142;-110.310;2023-07-31T09:18:13;29.20;99.90
41722;DHT22;27407;24.142;-110.310;2023-07-31T09:20:45;29.20;99.90
41722;DHT22;27407;24.142;-110.310;2023-07-31T09:23:13;29.20;99.90
41722;DHT22;27407;24.142;-110.310;2023-07-31T09:25:43;29.20;99.90
41722;DHT22;27407;24.142;-110.310;2023-07-31T09:28:11;29.20;99.90
41722;DHT22;27407;24.142;-110.310;2023-07-31T09:30:47;29.30;99.90
41722;DHT22;27407;24.142;-110.310;2023-07-31T09:33:14;29.30;99.90
41722;DHT22;27407;24.142;-110.310;2023-07-31T09:35:41;29.40;99.90
41722;DHT22;27407;24.142;-110.310;2023-07-31T09:38:13;29.20;99.90
41722;DHT22;27407;24.142;-110.310;2023-07-31T09:40:45;29.20;99.90
41722;DHT22;27407;24.142;-110.310;2023-07-31T09:43:16;29.20;99.90
41722;DHT22;27407;24.142;-110.310;2023-07-31T09:45:44;29.20;99.90
41722;DHT22;27407;24.142;-110.310;2023-07-31T09:48:18;29.20;99.90
41722;DHT22;27407;24.142;-110.310;2023-07-31T09:50:47;29.10;99.90
41722;DHT22;27407;24.142;-110.310;2023-07-31T09:53:15;29.10;99.90
41722;DHT22;27407;24.142;-110.310;2023-07-31T09:55:42;29.20;99.90
41722;DHT22;27407;24.142;-110.310;2023-07-31T09:58:11;29.10;99.90
41722;DHT22;27407;24.142;-110.310;2023-07-31T10:00:38;29.30;99.90
41722;DHT22;27407;24.142;-110.310;2023-07-31T10:03:07;29.20;99.90
41722;DHT22;27407;24.142;-110.310;2023-07-31T10:05:54;29.20;99.90
41722;DHT22;27407;24.142;-110.310;2023-07-31T10:08:27;29.10;99.90
41722;DHT22;27407;24.142;-110.310;2023-07-31T10:10:59;29.00;99.90
41722;DHT22;27407;24.142;-110.310;2023-07-31T10:13:28;29.00;99.90
41722;DHT22;27407;24.142;-110.310;2023-07-31T10:15:59;28.90;99.90
41722;DHT22;27407;24.142;-110.310;2023-07-31T10:18:29;28.90;99.90
41722;DHT22;27407;24.142;-110.310;2023-07-31T10:20:55;28.80;99.90
41722;DHT22;27407;24.142;-110.310;2023-07-31T10:23:23;28.70;99.90
41722;DHT22;27407;24.142;-110.310;2023-07-31T10:25:53;29.00;99.90
41722;DHT22;27407;24.142;-110.310;2023-07-31T10:28:21;28.80;99.90
41722;DHT22;27407;24.142;-110.310;2023-07-31T10:30:48;28.80;99.90
41722;DHT22;27407;24.142;-110.310;2023-07-31T10:33:16;28.80;99.90
41722;DHT22;27407;24.142;-110.310;2023-07-31T10:35:43;28.90;99.90
41722;DHT22;27407;24.142;-110.310;2023-07-31T10:38:13;28.90;99.90
41722;DHT22;27407;24.142;-110.310;2023-07-31T10:40:40;28.80;99.90
41722;DHT22;27407;24.142;-110.310;2023-07-31T10:43:07;28.70;99.90
41722;DHT22;27407;24.142;-110.310;2023-07-31T10:45:39;28.70;99.90
41722;DHT22;27407;24.142;-110.310;2023-07-31T10:48:15;28.70;99.90
41722;DHT22;27407;24.142;-110.310;2023-07-31T10:50:50;28.60;99.90
41722;DHT22;27407;24.142;-110.310;2023-07-31T10:53:30;28.50;99.90
41722;DHT22;27407;24.142;-110.310;2023-07-31T10:56:08;28.50;99.90
41722;DHT22;27407;24.142;-110.310;2023-07-31T10:58:36;28.50;99.90
41722;DHT22;27407;24.142;-110.310;2023-07-31T11:01:12;28.50;99.90
41722;DHT22;27407;24.142;-110.310;2023-07-31T11:03:43;28.50;99.90
41722;DHT22;27407;24.142;-110.310;2023-07-31T11:06:11;28.40;99.90
41722;DHT22;27407;24.142;-110.310;2023-07-31T11:08:48;28.50;99.90
41722;DHT22;27407;24.142;-110.310;2023-07-31T11:11:17;28.40;99.90
41722;DHT22;27407;24.142;-110.310;2023-07-31T11:13:52;28.50;99.90
41722;DHT22;27407;24.142;-110.310;2023-07-31T11:16:25;28.50;99.90
41722;DHT22;27407;24.142;-110.310;2023-07-31T11:18:52;28.60;99.90
41722;DHT22;27407;24.142;-110.310;2023-07-31T11:21:24;28.50;99.90
41722;DHT22;27407;24.142;-110.310;2023-07-31T11:23:57;28.50;99.90
41722;DHT22;27407;24.142;-110.310;2023-07-31T11:26:24;28.40;99.90
41722;DHT22;27407;24.142;-110.310;2023-07-31T11:28:51;28.50;99.90
41722;DHT22;27407;24.142;-110.310;2023-07-31T11:31:18;28.40;99.90
41722;DHT22;27407;24.142;-110.310;2023-07-31T11:33:45;28.30;99.90
41722;DHT22;27407;24.142;-110.310;2023-07-31T11:36:19;28.30;99.90
41722;DHT22;27407;24.142;-110.310;2023-07-31T11:38:46;28.30;99.90
41722;DHT22;27407;24.142;-110.310;2023-07-31T11:41:15;28.30;99.90
41722;DHT22;27407;24.142;-110.310;2023-07-31T11:43:42;28.40;99.90
41722;DHT22;27407;24.142;-110.310;2023-07-31T11:46:09;28.30;99.90
41722;DHT22;27407;24.142;-110.310;2023-07-31T11:48:37;28.30;99.90
41722;DHT22;27407;24.142;-110.310;2023-07-31T11:51:10;28.40;99.90
41722;DHT22;27407;24.142;-110.310;2023-07-31T11:53:50;28.40;99.90
41722;DHT22;27407;24.142;-110.310;2023-07-31T11:56:19;28.40;99.90
41722;DHT22;27407;24.142;-110.310;2023-07-31T11:58:54;28.40;99.90
41722;DHT22;27407;24.142;-110.310;2023-07-31T12:01:22;28.50;99.90
41722;DHT22;27407;24.142;-110.310;2023-07-31T12:03:50;28.50;99.90
41722;DHT22;27407;24.142;-110.310;2023-07-31T12:06:17;28.50;99.90
41722;DHT22;27407;24.142;-110.310;2023-07-31T12:08:44;28.40;99.90
41722;DHT22;27407;24.142;-110.310;2023-07-31T12:11:10;28.40;99.90
41722;DHT22;27407;24.142;-110.310;2023-07-31T12:13:37;28.50;99.90
41722;DHT22;27407;24.142;-110.310;2023-07-31T12:16:05;28.40;99.90
41722;DHT22;27407;24.142;-110.310;2023-07-31T12:18:36;28.40;99.90
41722;DHT22;27407;24.142;-110.310;2023-07-31T12:21:08;28.50;99.90
41722;DHT22;27407;24.142;-110.310;2023-07-31T12:23:36;28.50;99.90
41722;DHT22;27407;24.142;-110.310;2023-07-31T12:26:07;28.50;99.90
41722;DHT22;27407;24.142;-110.310;2023-07-31T12:28:44;28.50;99.90
41722;DHT22;27407;24.142;-110.310;2023-07-31T12:31:13;28.50;99.90
41722;DHT22;27407;24.142;-110.310;2023-07-31T12:33:41;28.50;99.90
41722;DHT22;27407;24.142;-110.310;2023-07-31T12:36:13;28.60;99.90
41722;DHT22;27407;24.142;-110.310;2023-07-31T12:38:41;28.70;99.90
41722;DHT22;27407;24.142;-110.310;2023-07-31T12:41:08;28.70;99.90
41722;DHT22;27407;24.142;-110.310;2023-07-31T12:43:36;28.80;99.90
41722;DHT22;27407;24.142;-110.310;2023-07-31T12:46:03;28.90;99.90
41722;DHT22;27407;24.142;-110.310;2023-07-31T12:48:30;28.90;99.90
41722;DHT22;27407;24.142;-110.310;2023-07-31T12:50:57;28.80;99.90
41722;DHT22;27407;24.142;-110.310;2023-07-31T12:53:24;28.80;99.90
41722;DHT22;27407;24.142;-110.310;2023-07-31T12:55:51;28.70;99.90
41722;DHT22;27407;24.142;-110.310;2023-07-31T12:58:17;28.80;99.90
41722;DHT22;27407;24.142;-110.310;2023-07-31T13:00:44;28.80;99.90
41722;DHT22;27407;24.142;-110.310;2023-07-31T13:03:11;28.90;99.90
41722;DHT22;27407;24.142;-110.310;2023-07-31T13:05:37;28.80;99.90
41722;DHT22;27407;24.142;-110.310;2023-07-31T13:08:04;28.80;99.90
41722;DHT22;27407;24.142;-110.310;2023-07-31T13:10:30;28.70;99.90
41722;DHT22;27407;24.142;-110.310;2023-07-31T13:12:57;28.70;99.90
41722;DHT22;27407;24.142;-110.310;2023-07-31T13:15:24;28.70;99.90
41722;DHT22;27407;24.142;-110.310;2023-07-31T13:17:50;28.70;99.90
41722;DHT22;27407;24.142;-110.310;2023-07-31T13:20:17;28.80;99.90
41722;DHT22;27407;24.142;-110.310;2023-07-31T13:22:44;28.80;99.90
41722;DHT22;27407;24.142;-110.310;2023-07-31T13:25:10;28.80;99.90
41722;DHT22;27407;24.142;-110.310;2023-07-31T13:27:37;28.90;99.90
41722;DHT22;27407;24.142;-110.310;2023-07-31T13:30:04;29.00;99.90
41722;DHT22;27407;24.142;-110.310;2023-07-31T13:32:30;29.00;99.90
41722;DHT22;27407;24.142;-110.310;2023-07-31T13:34:57;29.10;99.90
41722;DHT22;27407;24.142;-110.310;2023-07-31T13:37:24;29.20;99.90
41722;DHT22;27407;24.142;-110.310;2023-07-31T13:39:50;29.30;99.90
41722;DHT22;27407;24.142;-110.310;2023-07-31T13:42:17;29.30;99.90
41722;DHT22;27407;24.142;-110.310;2023-07-31T13:44:44;29.30;99.90
41722;DHT22;27407;24.142;-110.310;2023-07-31T13:47:10;29.50;99.90
41722;DHT22;27407;24.142;-110.310;2023-07-31T13:49:37;29.60;99.90
41722;DHT22;27407;24.142;-110.310;2023-07-31T13:52:05;29.70;99.90
41722;DHT22;27407;24.142;-110.310;2023-07-31T13:54:31;29.80;99.90
41722;DHT22;27407;24.142;-110.310;2023-07-31T13:56:58;29.90;99.90
41722;DHT22;27407;24.142;-110.310;2023-07-31T13:59:25;30.10;99.90
41722;DHT22;27407;24.142;-110.310;2023-07-31T14:01:51;30.30;99.90
41722;DHT22;27407;24.142;-110.310;2023-07-31T14:04:18;30.40;99.90
41722;DHT22;27407;24.142;-110.310;2023-07-31T14:06:45;30.50;99.90
41722;DHT22;27407;24.142;-110.310;2023-07-31T14:09:14;30.60;99.90
41722;DHT22;27407;24.142;-110.310;2023-07-31T14:11:40;30.80;99.90
41722;DHT22;27407;24.142;-110.310;2023-07-31T14:14:08;31.00;99.90
41722;DHT22;27407;24.142;-110.310;2023-07-31T14:16:35;31.10;99.90
41722;DHT22;27407;24.142;-110.310;2023-07-31T14:19:01;31.10;99.90
41722;DHT22;27407;24.142;-110.310;2023-07-31T14:21:28;31.30;99.90
41722;DHT22;27407;24.142;-110.310;2023-07-31T14:23:55;31.40;99.90
41722;DHT22;27407;24.142;-110.310;2023-07-31T14:26:21;31.40;99.90
41722;DHT22;27407;24.142;-110.310;2023-07-31T14:28:48;31.50;99.90
41722;DHT22;27407;24.142;-110.310;2023-07-31T14:31:15;31.60;99.90
41722;DHT22;27407;24.142;-110.310;2023-07-31T14:33:41;31.70;99.90
41722;DHT22;27407;24.142;-110.310;2023-07-31T14:36:08;31.80;99.90
41722;DHT22;27407;24.142;-110.310;2023-07-31T14:38:35;31.90;99.90
41722;DHT22;27407;24.142;-110.310;2023-07-31T14:41:01;32.00;99.90
41722;DHT22;27407;24.142;-110.310;2023-07-31T14:43:28;32.10;99.90
41722;DHT22;27407;24.142;-110.310;2023-07-31T14:45:55;32.20;99.90
41722;DHT22;27407;24.142;-110.310;2023-07-31T14:48:26;32.20;99.90
41722;DHT22;27407;24.142;-110.310;2023-07-31T14:50:53;32.30;99.90
41722;DHT22;27407;24.142;-110.310;2023-07-31T14:53:20;32.50;99.90
41722;DHT22;27407;24.142;-110.310;2023-07-31T14:55:47;32.60;99.90
41722;DHT22;27407;24.142;-110.310;2023-07-31T14:58:14;32.60;99.90
41722;DHT22;27407;24.142;-110.310;2023-07-31T15:00:41;32.70;99.90
41722;DHT22;27407;24.142;-110.310;2023-07-31T15:03:07;32.90;99.90